Time;durP1;ratioP1;P1;durP2;ratioP2;P2;SDS_P1;SDS_P2;PMS_P1;PMS_P2;Temp;Humidity;BMP_temperature;BMP_pressure;BME280_temperature;BME280_humidity;BME280_pressure;Samples;Min_cycle;Max_cycle;Signal;HPM_P1;HPM_P2
2022/10/16 08:24:46;;;;;;;16.13;12.30;;;;;;;;;;1831758;76;26378;-77
2022/10/16 08:27:14;;;;;;;14.00;12.43;;;;;;;;;;1840754;77;26326;-77
2022/10/16 08:29:44;;;;;;;21.43;13.50;;;;;;;;;;1816724;77;26719;-80
2022/10/16 08:32:12;;;;;;;14.23;11.63;;;;;;;;;;1761607;78;26289;-78
2022/10/16 08:34:41;;;;;;;17.83;12.80;;;;;;;;;;1815133;77;26314;-78
2022/10/16 08:37:11;;;;;;;13.37;11.97;;;;;;;;;;1728179;80;26386;-78
2022/10/16 08:39:40;;;;;;;14.60;12.10;;;;;;;;;;1776211;80;26330;-77
2022/10/16 08:42:14;;;;;;;14.00;12.57;;;;;;;;;;1780072;80;26284;-78
2022/10/16 08:45:00;;;;;;;15.63;12.83;;;;;;;;;;1780973;80;26850;-78
2022/10/16 08:47:31;;;;;;;18.47;12.77;;;;;;;;;;1822443;77;26256;-78
2022/10/16 08:50:01;;;;;;;20.60;13.23;;;;;;;;;;1794266;77;26389;-78
2022/10/16 08:52:31;;;;;;;14.33;12.83;;;;;;;;;;1746881;79;26684;-77
2022/10/16 08:54:59;;;;;;;15.20;12.77;;;;;;;;;;1807230;78;26302;-76
2022/10/16 08:57:28;;;;;;;15.77;12.53;;;;;;;;;;1807813;76;26381;-77
2022/10/16 09:00:00;;;;;;;14.50;13.07;;;;;;;;;;1756914;80;26288;-78
2022/10/16 09:02:30;;;;;;;18.07;13.33;;;;;;;;;;1815280;77;26794;-80
2022/10/16 09:05:06;;;;;;;14.47;13.07;;;;;;;;;;1819959;78;26275;-80
2022/10/16 09:07:38;;;;;;;15.47;12.33;;;;;;;;;;1744486;80;26385;-78
2022/10/16 09:10:16;;;;;;;15.50;13.03;;;;;;;;;;1735494;79;26421;-77
2022/10/16 09:12:46;;;;;;;14.07;12.53;;;;;;;;;;1777756;77;26271;-77
2022/10/16 09:15:18;;;;;;;15.73;12.43;;;;;;;;;;1829531;77;26388;-77
2022/10/16 09:17:51;;;;;;;18.33;13.17;;;;;;;;;;1773489;78;26306;-76
2022/10/16 09:20:21;;;;;;;15.20;13.07;;;;;;;;;;1767735;80;26577;-76
2022/10/16 09:22:51;;;;;;;15.17;13.70;;;;;;;;;;1779728;80;26553;-77
2022/10/16 09:25:21;;;;;;;17.53;13.60;;;;;;;;;;1773852;80;27455;-76
2022/10/16 09:27:52;;;;;;;16.77;12.37;;;;;;;;;;1829279;78;26880;-77
2022/10/16 09:30:22;;;;;;;15.67;13.40;;;;;;;;;;1832320;77;26284;-77
2022/10/16 09:32:52;;;;;;;18.40;13.47;;;;;;;;;;1775841;77;26345;-77
2022/10/16 09:35:23;;;;;;;15.50;13.37;;;;;;;;;;1761716;78;26289;-76
2022/10/16 09:37:53;;;;;;;14.30;12.87;;;;;;;;;;1795984;78;26643;-77
2022/10/16 09:40:29;;;;;;;16.00;13.20;;;;;;;;;;1819205;77;26294;-76
2022/10/16 09:43:00;;;;;;;13.80;12.30;;;;;;;;;;1805725;78;26553;-76
2022/10/16 09:45:28;;;;;;;15.63;13.10;;;;;;;;;;1813949;77;26379;-77
2022/10/16 09:47:57;;;;;;;13.40;12.10;;;;;;;;;;1837364;78;26287;-77
2022/10/16 09:50:26;;;;;;;14.30;12.20;;;;;;;;;;1836430;78;26315;-76
2022/10/16 09:53:22;;;;;;;14.80;13.13;;;;;;;;;;1769801;80;26380;-76
2022/10/16 09:55:50;;;;;;;15.00;12.53;;;;;;;;;;1825909;76;27384;-77
2022/10/16 09:58:21;;;;;;;13.57;12.17;;;;;;;;;;1769040;80;26412;-77
2022/10/16 10:00:53;;;;;;;13.63;12.23;;;;;;;;;;1829130;78;26231;-77
2022/10/16 10:03:38;;;;;;;15.40;12.83;;;;;;;;;;1839793;78;26569;-77
2022/10/16 10:06:09;;;;;;;13.60;12.43;;;;;;;;;;1810999;76;26751;-77
2022/10/16 10:08:39;;;;;;;13.53;12.23;;;;;;;;;;1840153;77;26302;-77
2022/10/16 10:11:08;;;;;;;13.87;12.47;;;;;;;;;;1843182;78;26327;-77
2022/10/16 10:13:37;;;;;;;13.93;12.63;;;;;;;;;;1716994;81;26256;-78
2022/10/16 10:16:06;;;;;;;15.63;12.43;;;;;;;;;;1751921;81;26352;-77
2022/10/16 10:18:35;;;;;;;15.30;12.90;;;;;;;;;;1755857;80;26264;-77
2022/10/16 10:21:05;;;;;;;14.00;12.70;;;;;;;;;;1761981;81;26401;-78
2022/10/16 10:23:34;;;;;;;14.13;12.40;;;;;;;;;;1767716;80;26310;-76
2022/10/16 10:26:05;;;;;;;16.40;12.53;;;;;;;;;;1762586;80;26299;-77
2022/10/16 10:28:53;;;;;;;13.50;12.03;;;;;;;;;;1816452;78;26235;-77
2022/10/16 10:31:24;;;;;;;15.70;12.10;;;;;;;;;;1839277;77;26224;-77
2022/10/16 10:33:55;;;;;;;13.57;12.17;;;;;;;;;;1798454;77;26220;-77
2022/10/16 10:36:29;;;;;;;13.33;12.20;;;;;;;;;;1832406;76;26693;-77
2022/10/16 10:38:59;;;;;;;13.07;12.07;;;;;;;;;;1828140;77;26232;-77
2022/10/16 10:41:38;;;;;;;13.33;12.17;;;;;;;;;;1834547;77;26235;-77
2022/10/16 10:44:09;;;;;;;14.13;12.10;;;;;;;;;;1792860;77;26228;-76
2022/10/16 10:46:39;;;;;;;13.80;12.47;;;;;;;;;;1760527;80;26236;-76
2022/10/16 10:49:12;;;;;;;13.70;12.63;;;;;;;;;;1750476;80;26287;-77
2022/10/16 10:51:42;;;;;;;15.70;11.87;;;;;;;;;;1832860;77;26286;-80
2022/10/16 10:54:14;;;;;;;14.37;13.00;;;;;;;;;;1778971;78;26301;-76
2022/10/16 10:56:45;;;;;;;14.93;11.77;;;;;;;;;;1790224;79;26247;-77
2022/10/16 10:59:41;;;;;;;12.47;11.33;;;;;;;;;;1791641;79;26331;-77
2022/10/16 11:02:13;;;;;;;13.20;12.03;;;;;;;;;;1754119;79;26241;-77
2022/10/16 11:04:46;;;;;;;12.90;11.63;;;;;;;;;;1767342;79;26260;-77
2022/10/16 11:07:17;;;;;;;13.00;12.00;;;;;;;;;;1754003;79;26244;-77
2022/10/16 11:09:48;;;;;;;12.67;11.57;;;;;;;;;;1832695;77;26240;-77
2022/10/16 11:12:18;;;;;;;12.60;11.40;;;;;;;;;;1808689;77;26239;-78
2022/10/16 11:14:48;;;;;;;11.93;10.97;;;;;;;;;;1832411;78;27040;-77
2022/10/16 11:17:20;;;;;;;12.80;11.50;;;;;;;;;;1840577;78;26302;-77
2022/10/16 11:19:50;;;;;;;12.63;11.47;;;;;;;;;;1772354;80;26244;-76
2022/10/16 11:22:20;;;;;;;12.90;11.30;;;;;;;;;;1753217;81;26632;-77
2022/10/16 11:24:50;;;;;;;12.50;11.70;;;;;;;;;;1835373;77;26216;-77
2022/10/16 11:27:20;;;;;;;13.03;11.77;;;;;;;;;;1801418;77;26324;-77
2022/10/16 11:29:52;;;;;;;13.30;11.40;;;;;;;;;;1816776;76;26227;-77
2022/10/16 11:32:22;;;;;;;12.97;11.80;;;;;;;;;;1804294;77;26748;-76
2022/10/16 11:34:53;;;;;;;14.93;12.00;;;;;;;;;;1830707;77;26876;-77
2022/10/16 11:37:23;;;;;;;13.47;11.90;;;;;;;;;;1750257;79;26315;-77
2022/10/16 11:39:53;;;;;;;13.03;11.90;;;;;;;;;;1771523;77;26331;-77
2022/10/16 11:42:23;;;;;;;13.07;11.77;;;;;;;;;;1814901;77;26296;-77
2022/10/16 11:44:54;;;;;;;14.60;12.57;;;;;;;;;;1843371;77;24178;-77
2022/10/16 11:47:28;;;;;;;13.80;12.50;;;;;;;;;;1773582;80;24259;-77
2022/10/16 11:49:59;;;;;;;14.73;13.50;;;;;;;;;;1818642;77;24206;-76
2022/10/16 11:52:32;;;;;;;15.00;13.53;;;;;;;;;;1763101;81;26305;-78
2022/10/16 11:55:03;;;;;;;14.97;13.43;;;;;;;;;;1765117;80;24184;-77
2022/10/16 11:57:33;;;;;;;15.47;14.27;;;;;;;;;;1827544;78;24186;-77
2022/10/16 12:00:03;;;;;;;15.00;13.60;;;;;;;;;;1810490;77;24170;-78
2022/10/16 12:02:35;;;;;;;15.10;13.70;;;;;;;;;;1809561;77;26779;-78
2022/10/16 12:05:07;;;;;;;15.60;14.03;;;;;;;;;;1799663;77;24226;-78
2022/10/16 12:07:38;;;;;;;15.43;13.93;;;;;;;;;;1796164;77;24664;-78
2022/10/16 12:10:20;;;;;;;14.97;13.50;;;;;;;;;;1840606;78;24186;-78
2022/10/16 12:12:49;;;;;;;15.80;13.67;;;;;;;;;;1815921;78;24273;-78
2022/10/16 12:15:23;;;;;;;15.43;13.53;;;;;;;;;;1815697;78;26231;-77
2022/10/16 12:17:52;;;;;;;15.47;13.87;;;;;;;;;;1832856;77;24995;-78
2022/10/16 12:20:25;;;;;;;15.60;14.10;;;;;;;;;;1769332;80;26255;-78
2022/10/16 12:22:55;;;;;;;19.23;14.43;;;;;;;;;;1770233;80;24259;-77
2022/10/16 12:25:25;;;;;;;15.83;14.20;;;;;;;;;;1744136;80;24185;-78
2022/10/16 12:27:58;;;;;;;15.60;13.97;;;;;;;;;;1771414;80;24184;-77
2022/10/16 12:30:31;;;;;;;16.80;14.70;;;;;;;;;;1768938;80;24196;-75
2022/10/16 12:33:01;;;;;;;15.03;13.63;;;;;;;;;;1771742;80;24211;-74
2022/10/16 12:35:31;;;;;;;16.90;13.43;;;;;;;;;;1731763;80;26786;-74
2022/10/16 12:38:10;;;;;;;15.83;13.80;;;;;;;;;;1769621;80;24255;-74
2022/10/16 12:40:39;;;;;;;13.93;12.63;;;;;;;;;;1743301;80;24253;-74
2022/10/16 12:43:16;;;;;;;14.20;12.97;;;;;;;;;;1737787;80;24277;-73
2022/10/16 12:45:46;;;;;;;14.20;12.83;;;;;;;;;;1722810;79;26805;-74
2022/10/16 12:48:23;;;;;;;14.90;13.60;;;;;;;;;;1713270;80;24190;-73
2022/10/16 12:50:52;;;;;;;14.57;13.23;;;;;;;;;;1751337;79;24313;-73
2022/10/16 12:53:22;;;;;;;14.30;12.97;;;;;;;;;;1782366;80;24180;-73
2022/10/16 12:55:59;;;;;;;14.60;13.17;;;;;;;;;;1775150;80;26335;-75
2022/10/16 12:58:36;;;;;;;13.47;12.07;;;;;;;;;;1742186;80;24443;-76
2022/10/16 13:01:07;;;;;;;14.37;12.90;;;;;;;;;;1767261;79;24186;-76
2022/10/16 13:03:43;;;;;;;14.27;13.07;;;;;;;;;;1776275;79;24999;-80
2022/10/16 13:06:16;;;;;;;15.13;12.73;;;;;;;;;;1770348;80;26782;-76
2022/10/16 13:08:49;;;;;;;14.27;13.03;;;;;;;;;;1751025;80;24212;-77
2022/10/16 13:11:20;;;;;;;14.13;12.93;;;;;;;;;;1832293;78;24748;-79
2022/10/16 13:13:54;;;;;;;13.93;12.53;;;;;;;;;;1839397;76;24173;-77
2022/10/16 13:16:24;;;;;;;14.57;13.17;;;;;;;;;;1806157;79;24177;-76
2022/10/16 13:18:57;;;;;;;14.30;12.90;;;;;;;;;;1788070;77;26349;-77
2022/10/16 13:21:30;;;;;;;13.63;12.50;;;;;;;;;;1774935;77;24524;-76
2022/10/16 13:24:01;;;;;;;14.00;12.77;;;;;;;;;;1814360;78;24178;-77
2022/10/16 13:26:32;;;;;;;14.40;13.00;;;;;;;;;;1737618;81;24986;-77
2022/10/16 13:29:01;;;;;;;14.50;13.23;;;;;;;;;;1726365;79;24708;-89
2022/10/16 13:31:32;;;;;;;14.43;13.27;;;;;;;;;;1841433;77;24179;-82
2022/10/16 13:34:01;;;;;;;14.30;13.00;;;;;;;;;;1740598;79;24194;-83
2022/10/16 13:36:31;;;;;;;14.00;12.67;;;;;;;;;;1817899;77;24162;-83
2022/10/16 13:39:07;;;;;;;14.73;13.20;;;;;;;;;;1823206;78;24771;-82
2022/10/16 13:41:35;;;;;;;14.63;13.27;;;;;;;;;;1704998;82;24207;-82
2022/10/16 13:44:06;;;;;;;15.00;13.50;;;;;;;;;;1717855;80;613902;-82
2022/10/16 13:46:35;;;;;;;16.93;13.33;;;;;;;;;;1806440;77;616973;-81
2022/10/16 13:49:06;;;;;;;15.07;13.73;;;;;;;;;;1775096;77;616227;-81
2022/10/16 13:51:34;;;;;;;14.23;12.77;;;;;;;;;;1761455;78;618038;-79
2022/10/16 13:54:03;;;;;;;14.63;13.33;;;;;;;;;;1784294;78;615286;-79
2022/10/16 13:56:33;;;;;;;15.00;13.23;;;;;;;;;;1819983;77;617906;-79
2022/10/16 13:59:02;;;;;;;14.30;12.93;;;;;;;;;;1786131;78;616067;-78
2022/10/16 14:01:33;;;;;;;14.27;12.77;;;;;;;;;;1796490;78;617875;-79
2022/10/16 14:04:07;;;;;;;13.93;12.57;;;;;;;;;;1804993;78;615920;-79
2022/10/16 14:06:36;;;;;;;15.10;13.43;;;;;;;;;;1804536;78;617763;-80
2022/10/16 14:09:08;;;;;;;14.80;13.23;;;;;;;;;;1786276;78;616090;-80
2022/10/16 14:11:39;;;;;;;14.03;12.73;;;;;;;;;;1804749;78;617939;-79
2022/10/16 14:14:11;;;;;;;15.00;13.80;;;;;;;;;;1715782;79;617723;-78
2022/10/16 14:16:43;;;;;;;14.63;13.43;;;;;;;;;;1796096;78;617033;-79
2022/10/16 14:19:17;;;;;;;15.13;13.77;;;;;;;;;;1783297;78;617820;-78
2022/10/16 14:21:45;;;;;;;14.90;13.57;;;;;;;;;;1826832;76;617753;-78
2022/10/16 14:24:15;;;;;;;15.33;14.03;;;;;;;;;;1746576;77;617979;-78
2022/10/16 14:26:47;;;;;;;15.87;14.27;;;;;;;;;;1808024;78;617829;-79
2022/10/16 14:29:18;;;;;;;15.07;13.77;;;;;;;;;;1820914;77;617049;-80
2022/10/16 14:31:56;;;;;;;14.90;13.60;;;;;;;;;;1825050;77;617784;-78
2022/10/16 14:34:30;;;;;;;14.87;13.67;;;;;;;;;;1769301;74;617735;-80
2022/10/16 14:37:02;;;;;;;14.87;13.53;;;;;;;;;;1817210;75;615754;-79
2022/10/16 14:39:31;;;;;;;14.97;13.63;;;;;;;;;;1817784;75;617123;-78
2022/10/16 14:41:59;;;;;;;14.53;13.17;;;;;;;;;;1769462;77;615815;-78
2022/10/16 14:44:31;;;;;;;15.93;14.30;;;;;;;;;;1731886;77;617872;-79
2022/10/16 14:47:01;;;;;;;15.57;14.27;;;;;;;;;;1800167;77;616031;-80
2022/10/16 14:49:31;;;;;;;15.40;14.20;;;;;;;;;;1751453;80;617840;-79
2022/10/16 14:52:00;;;;;;;15.50;13.90;;;;;;;;;;1802893;78;616075;-79
2022/10/16 14:54:28;;;;;;;14.20;12.97;;;;;;;;;;1731627;79;617829;-79
2022/10/16 14:56:57;;;;;;;16.63;15.20;;;;;;;;;;1738229;79;615175;-79
2022/10/16 14:59:27;;;;;;;17.43;15.53;;;;;;;;;;1708647;77;617732;-78
2022/10/16 15:01:56;;;;;;;16.37;14.13;;;;;;;;;;1798523;76;616174;-78
2022/10/16 15:04:26;;;;;;;14.97;13.63;;;;;;;;;;1780948;78;617856;-80
2022/10/16 15:06:55;;;;;;;16.23;13.53;;;;;;;;;;1795218;78;615900;-81
2022/10/16 15:09:31;;;;;;;15.17;13.73;;;;;;;;;;1740821;79;617173;-81
2022/10/16 15:12:00;;;;;;;17.17;15.33;;;;;;;;;;1860973;76;616017;-81
2022/10/16 15:14:28;;;;;;;16.70;15.10;;;;;;;;;;1853012;75;616910;-82
2022/10/16 15:16:59;;;;;;;15.00;13.50;;;;;;;;;;1842972;76;616136;-80
2022/10/16 15:19:28;;;;;;;14.27;13.07;;;;;;;;;;1834372;76;617895;-79
2022/10/16 15:21:57;;;;;;;15.17;13.63;;;;;;;;;;1771110;79;615905;-79
2022/10/16 15:24:25;;;;;;;14.37;12.97;;;;;;;;;;1852851;76;617771;-79
2022/10/16 15:26:56;;;;;;;14.60;13.17;;;;;;;;;;1749986;80;615986;-79
2022/10/16 15:29:25;;;;;;;14.73;13.43;;;;;;;;;;1821855;75;617720;-80
2022/10/16 15:31:55;;;;;;;16.43;14.50;;;;;;;;;;1756620;79;615909;-79
2022/10/16 15:34:23;;;;;;;15.67;13.90;;;;;;;;;;1844161;77;616933;-79
2022/10/16 15:36:52;;;;;;;15.50;14.00;;;;;;;;;;1809787;77;615710;-79
2022/10/16 15:39:21;;;;;;;15.73;14.13;;;;;;;;;;1753591;80;617688;-78
2022/10/16 15:41:50;;;;;;;15.67;14.07;;;;;;;;;;1832973;76;617607;-79
2022/10/16 15:44:22;;;;;;;17.83;13.77;;;;;;;;;;1754599;80;617858;-79
2022/10/16 15:46:51;;;;;;;18.60;14.10;;;;;;;;;;1840043;77;615916;-79
2022/10/16 15:49:21;;;;;;;15.07;13.53;;;;;;;;;;1831885;77;617758;-79
2022/10/16 15:51:52;;;;;;;15.87;14.10;;;;;;;;;;1813190;77;616960;-79
2022/10/16 15:54:22;;;;;;;16.40;13.77;;;;;;;;;;1831978;77;617648;-79
2022/10/16 15:56:52;;;;;;;15.27;13.87;;;;;;;;;;1814446;77;615928;-79
2022/10/16 15:59:22;;;;;;;16.27;14.23;;;;;;;;;;1831956;77;617800;-80
2022/10/16 16:01:51;;;;;;;15.37;13.77;;;;;;;;;;1838680;77;615902;-79
2022/10/16 16:04:19;;;;;;;19.10;14.53;;;;;;;;;;1803022;77;617980;-79
2022/10/16 16:06:49;;;;;;;14.87;13.63;;;;;;;;;;1810907;77;618018;-79
2022/10/16 16:09:18;;;;;;;14.97;13.63;;;;;;;;;;1830040;77;617932;-79
2022/10/16 16:11:47;;;;;;;15.70;14.30;;;;;;;;;;1838174;77;617819;-80
2022/10/16 16:14:17;;;;;;;16.20;14.60;;;;;;;;;;1803438;77;617290;-79
2022/10/16 16:16:46;;;;;;;22.07;19.77;;;;;;;;;;1813466;77;617795;-79
2022/10/16 16:19:17;;;;;;;18.70;16.90;;;;;;;;;;1805734;77;617759;-79
2022/10/16 16:21:45;;;;;;;17.57;15.77;;;;;;;;;;1839885;77;617804;-79
2022/10/16 16:24:16;;;;;;;16.67;15.10;;;;;;;;;;1804981;77;617962;-79
2022/10/16 16:26:45;;;;;;;14.87;13.67;;;;;;;;;;1839867;77;617898;-79
2022/10/16 16:29:15;;;;;;;15.07;13.67;;;;;;;;;;1831989;77;618162;-79
2022/10/16 16:31:43;;;;;;;17.80;16.00;;;;;;;;;;1791917;78;618023;-78
2022/10/16 16:34:13;;;;;;;15.37;14.00;;;;;;;;;;1826597;77;617741;-78
2022/10/16 16:36:41;;;;;;;15.77;14.27;;;;;;;;;;1852384;77;617751;-79
2022/10/16 16:39:12;;;;;;;29.80;26.90;;;;;;;;;;1770588;79;617810;-79
2022/10/16 16:41:41;;;;;;;26.07;20.90;;;;;;;;;;1814497;77;617849;-77
2022/10/16 16:44:11;;;;;;;17.00;15.23;;;;;;;;;;1832172;77;617841;-77
2022/10/16 16:46:42;;;;;;;14.40;13.17;;;;;;;;;;1778228;80;617874;-78
2022/10/16 16:49:12;;;;;;;15.30;13.77;;;;;;;;;;1825283;76;617799;-77
2022/10/16 16:51:41;;;;;;;15.27;13.77;;;;;;;;;;1834639;77;617870;-77
2022/10/16 16:54:12;;;;;;;14.37;12.93;;;;;;;;;;1844094;77;617760;-77
2022/10/16 16:56:42;;;;;;;14.27;12.87;;;;;;;;;;1834282;77;617805;-77
2022/10/16 16:59:13;;;;;;;13.60;12.47;;;;;;;;;;1826689;77;617777;-77
2022/10/16 17:01:42;;;;;;;13.90;12.63;;;;;;;;;;1852285;77;617820;-75
2022/10/16 17:04:10;;;;;;;15.27;13.70;;;;;;;;;;1825770;77;617839;-76
2022/10/16 17:06:40;;;;;;;16.17;14.47;;;;;;;;;;1833978;77;616758;-76
2022/10/16 17:09:12;;;;;;;13.93;12.80;;;;;;;;;;1825320;77;617893;-77
2022/10/16 17:11:42;;;;;;;13.90;12.70;;;;;;;;;;1852170;77;617832;-76
2022/10/16 17:14:11;;;;;;;14.37;13.07;;;;;;;;;;1844122;77;617888;-76
2022/10/16 17:16:43;;;;;;;13.03;12.00;;;;;;;;;;1761654;79;617936;-75
2022/10/16 17:19:13;;;;;;;12.23;11.20;;;;;;;;;;1776325;79;618010;-75
2022/10/16 17:21:42;;;;;;;12.97;11.67;;;;;;;;;;1833499;76;617982;-75
2022/10/16 17:24:12;;;;;;;12.43;11.43;;;;;;;;;;1826371;77;617954;-75
2022/10/16 17:26:43;;;;;;;11.27;10.60;;;;;;;;;;1852059;77;617985;-75
2022/10/16 17:29:12;;;;;;;10.57;9.97;;;;;;;;;;1825200;77;617916;-75
2022/10/16 17:31:41;;;;;;;10.97;10.27;;;;;;;;;;1852260;77;615742;-75
2022/10/16 17:34:13;;;;;;;11.50;10.80;;;;;;;;;;1851856;75;617939;-76
2022/10/16 17:36:45;;;;;;;11.60;10.70;;;;;;;;;;1778090;79;617035;-75
2022/10/16 17:39:16;;;;;;;12.20;11.50;;;;;;;;;;1827471;77;617690;-75
2022/10/16 17:41:45;;;;;;;11.43;10.30;;;;;;;;;;1851949;77;618133;-75
2022/10/16 17:44:18;;;;;;;9.87;9.07;;;;;;;;;;1754436;79;617783;-72
2022/10/16 17:46:45;;;;;;;10.70;10.00;;;;;;;;;;1852057;76;613715;-72
2022/10/16 17:49:14;;;;;;;11.23;10.60;;;;;;;;;;1754125;79;617829;-72
2022/10/16 17:51:42;;;;;;;11.37;10.77;;;;;;;;;;1785876;77;618092;-72
2022/10/16 17:54:13;;;;;;;12.50;11.70;;;;;;;;;;1843688;77;616935;-72
2022/10/16 17:56:42;;;;;;;12.37;11.63;;;;;;;;;;1833980;77;617111;-72
2022/10/16 17:59:12;;;;;;;12.47;11.87;;;;;;;;;;1844046;77;617694;-72
2022/10/16 18:01:43;;;;;;;14.30;13.40;;;;;;;;;;1852055;77;617793;-71
2022/10/16 18:04:12;;;;;;;15.97;14.70;;;;;;;;;;1843856;76;617749;-72
2022/10/16 18:06:42;;;;;;;13.53;12.63;;;;;;;;;;1852035;77;617773;-71
2022/10/16 18:09:12;;;;;;;14.83;13.73;;;;;;;;;;1826029;77;617776;-71
2022/10/16 18:11:41;;;;;;;13.00;12.10;;;;;;;;;;1834329;77;616940;-73
2022/10/16 18:14:12;;;;;;;16.07;14.87;;;;;;;;;;1826718;77;617117;-71
2022/10/16 18:16:40;;;;;;;14.97;13.73;;;;;;;;;;1851985;77;617848;-72
2022/10/16 18:19:09;;;;;;;14.83;13.63;;;;;;;;;;1826140;77;617771;-71
2022/10/16 18:21:38;;;;;;;16.50;15.30;;;;;;;;;;1851974;77;616960;-71
2022/10/16 18:24:07;;;;;;;15.83;14.70;;;;;;;;;;1754675;80;617819;-72
2022/10/16 18:26:35;;;;;;;20.57;19.07;;;;;;;;;;1832118;76;617923;-71
2022/10/16 18:29:04;;;;;;;14.47;13.47;;;;;;;;;;1852148;77;615952;-71
2022/10/16 18:31:34;;;;;;;17.23;15.87;;;;;;;;;;1761740;80;617808;-71
2022/10/16 18:34:02;;;;;;;14.53;13.60;;;;;;;;;;1851915;77;615155;-72
2022/10/16 18:36:31;;;;;;;15.27;14.13;;;;;;;;;;1832483;77;618102;-71
2022/10/16 18:39:02;;;;;;;16.60;15.33;;;;;;;;;;1832023;77;615812;-71
2022/10/16 18:41:32;;;;;;;16.20;14.30;;;;;;;;;;1776210;79;617834;-72
2022/10/16 18:44:00;;;;;;;17.40;16.03;;;;;;;;;;1839920;77;615712;-71
2022/10/16 18:46:29;;;;;;;16.37;14.90;;;;;;;;;;1831803;77;617057;-74
2022/10/16 18:49:00;;;;;;;17.97;16.17;;;;;;;;;;1839954;77;615968;-75
2022/10/16 18:51:31;;;;;;;17.63;15.83;;;;;;;;;;1805279;77;617904;-74
2022/10/16 18:54:01;;;;;;;16.87;15.10;;;;;;;;;;1840035;77;615886;-74
2022/10/16 18:56:31;;;;;;;13.47;11.90;;;;;;;;;;1831901;77;617199;-75
2022/10/16 18:59:01;;;;;;;17.00;15.50;;;;;;;;;;1840262;77;616026;-75
2022/10/16 19:01:31;;;;;;;15.27;14.00;;;;;;;;;;1805712;77;617883;-75
2022/10/16 19:04:02;;;;;;;12.73;11.63;;;;;;;;;;1840189;77;615520;-74
2022/10/16 19:06:33;;;;;;;12.37;11.27;;;;;;;;;;1840083;77;617960;-75
2022/10/16 19:09:02;;;;;;;11.87;10.80;;;;;;;;;;1813466;77;615622;-75
2022/10/16 19:11:31;;;;;;;12.03;11.03;;;;;;;;;;1813512;77;617906;-75
2022/10/16 19:14:00;;;;;;;12.97;11.93;;;;;;;;;;1760696;79;616067;-75
2022/10/16 19:16:30;;;;;;;11.53;10.80;;;;;;;;;;1770788;79;617867;-72
2022/10/16 19:19:00;;;;;;;24.13;21.93;;;;;;;;;;1839869;77;614667;-73
2022/10/16 19:21:29;;;;;;;11.33;10.53;;;;;;;;;;1831826;75;617788;-72
2022/10/16 19:23:59;;;;;;;20.73;19.07;;;;;;;;;;1839843;77;615859;-73
2022/10/16 19:26:28;;;;;;;13.73;12.80;;;;;;;;;;1831825;77;617813;-73
2022/10/16 19:28:58;;;;;;;14.23;13.10;;;;;;;;;;1839975;77;616142;-73
2022/10/16 19:31:28;;;;;;;10.30;9.43;;;;;;;;;;1805277;77;617875;-73
2022/10/16 19:33:57;;;;;;;11.80;10.87;;;;;;;;;;1790907;78;613844;-73
2022/10/16 19:36:26;;;;;;;12.83;11.77;;;;;;;;;;1843938;77;617791;-73
2022/10/16 19:38:56;;;;;;;11.43;10.73;;;;;;;;;;1850579;77;615823;-73
2022/10/16 19:41:25;;;;;;;9.27;8.67;;;;;;;;;;1842179;77;618096;-73
2022/10/16 19:43:53;;;;;;;19.43;17.77;;;;;;;;;;1850453;77;611610;-73
2022/10/16 19:46:23;;;;;;;11.63;10.73;;;;;;;;;;1841962;77;617747;-73
2022/10/16 19:48:54;;;;;;;26.63;23.83;;;;;;;;;;1850065;77;616103;-73
2022/10/16 19:51:23;;;;;;;18.40;16.63;;;;;;;;;;1842030;77;617750;-74
2022/10/16 19:53:55;;;;;;;15.10;14.00;;;;;;;;;;1761688;80;616038;-74
2022/10/16 19:56:24;;;;;;;13.20;12.30;;;;;;;;;;1831949;77;617823;-73
2022/10/16 19:58:55;;;;;;;13.37;12.47;;;;;;;;;;1840043;77;615808;-73
2022/10/16 20:01:24;;;;;;;12.43;11.53;;;;;;;;;;1831756;77;617798;-73
2022/10/16 20:03:52;;;;;;;14.87;13.57;;;;;;;;;;1839913;77;615903;-75
2022/10/16 20:06:21;;;;;;;13.03;12.10;;;;;;;;;;1832077;77;617792;-73
2022/10/16 20:08:51;;;;;;;13.90;12.90;;;;;;;;;;1839789;77;617752;-74
2022/10/16 20:11:20;;;;;;;12.53;11.53;;;;;;;;;;1831887;77;617887;-74
2022/10/16 20:13:50;;;;;;;13.53;12.27;;;;;;;;;;1813005;77;617747;-74
2022/10/16 20:16:19;;;;;;;17.07;15.47;;;;;;;;;;1831976;77;618124;-74
2022/10/16 20:18:49;;;;;;;10.97;9.97;;;;;;;;;;1839848;77;616993;-75
2022/10/16 20:21:19;;;;;;;11.40;10.50;;;;;;;;;;1832078;77;615665;-75
2022/10/16 20:23:49;;;;;;;15.43;13.93;;;;;;;;;;1812295;77;617991;-74
2022/10/16 20:26:18;;;;;;;14.63;13.27;;;;;;;;;;1830169;77;617831;-74
2022/10/16 20:28:48;;;;;;;11.93;10.87;;;;;;;;;;1838056;77;617051;-74
2022/10/16 20:31:21;;;;;;;11.17;9.97;;;;;;;;;;1830662;77;617749;-74
2022/10/16 20:33:50;;;;;;;12.27;10.73;;;;;;;;;;1838120;76;615929;-74
2022/10/16 20:36:20;;;;;;;9.33;6.60;;;;;;;;;;1845334;75;617861;-74
2022/10/16 20:38:49;;;;;;;6.00;5.40;;;;;;;;;;1850469;77;613640;-74
2022/10/16 20:41:19;;;;;;;7.70;5.87;;;;;;;;;;1842247;77;613654;-73
2022/10/16 20:43:48;;;;;;;8.63;6.07;;;;;;;;;;1850082;77;613744;-74
2022/10/16 20:46:18;;;;;;;6.87;5.57;;;;;;;;;;1842393;77;613804;-74
2022/10/16 20:48:48;;;;;;;4.67;3.73;;;;;;;;;;1831670;77;612540;-73
2022/10/16 20:51:17;;;;;;;5.97;3.33;;;;;;;;;;1842631;77;613687;-74
2022/10/16 20:53:47;;;;;;;9.17;5.40;;;;;;;;;;1788010;79;613697;-74
2022/10/16 20:56:16;;;;;;;4.83;3.20;;;;;;;;;;1827078;77;613753;-74
2022/10/16 20:58:45;;;;;;;5.70;3.80;;;;;;;;;;1834458;75;612953;-74
2022/10/16 21:01:15;;;;;;;5.17;3.70;;;;;;;;;;1806241;77;612543;-75
2022/10/16 21:03:45;;;;;;;5.77;3.60;;;;;;;;;;1840344;77;613573;-75
2022/10/16 21:06:13;;;;;;;6.23;4.03;;;;;;;;;;1801957;76;613800;-75
2022/10/16 21:08:42;;;;;;;7.10;3.97;;;;;;;;;;1832094;76;613591;-75
2022/10/16 21:11:15;;;;;;;5.97;4.10;;;;;;;;;;1842312;77;612437;-75
2022/10/16 21:13:44;;;;;;;8.70;7.80;;;;;;;;;;1851251;77;613604;-75
2022/10/16 21:16:14;;;;;;;7.23;4.20;;;;;;;;;;1729325;80;619420;-75
2022/10/16 21:18:43;;;;;;;8.53;5.97;;;;;;;;;;1833792;77;613739;-75
2022/10/16 21:21:13;;;;;;;11.83;8.67;;;;;;;;;;1754495;80;613602;-75
2022/10/16 21:23:42;;;;;;;6.63;5.70;;;;;;;;;;1849685;76;614991;-75
2022/10/16 21:26:11;;;;;;;8.97;6.30;;;;;;;;;;1842039;77;613008;-75
2022/10/16 21:28:39;;;;;;;5.93;4.20;;;;;;;;;;1807949;77;613700;-75
2022/10/16 21:31:12;;;;;;;7.17;5.17;;;;;;;;;;1752172;79;612932;-75
2022/10/16 21:33:42;;;;;;;8.03;4.60;;;;;;;;;;1850505;77;613690;-76
2022/10/16 21:36:15;;;;;;;10.53;4.80;;;;;;;;;;1844214;77;613691;-76
2022/10/16 21:38:49;;;;;;;6.27;4.87;;;;;;;;;;1852471;77;615754;-76
2022/10/16 21:41:19;;;;;;;7.97;4.90;;;;;;;;;;1826492;77;612726;-76
2022/10/16 21:43:48;;;;;;;10.23;4.40;;;;;;;;;;1852463;77;613724;-75
2022/10/16 21:46:20;;;;;;;9.07;5.10;;;;;;;;;;1844445;77;614944;-76
2022/10/16 21:48:48;;;;;;;6.33;5.03;;;;;;;;;;1851975;77;613674;-75
2022/10/16 21:51:18;;;;;;;9.00;5.67;;;;;;;;;;1844634;77;613547;-75
2022/10/16 21:53:49;;;;;;;7.87;5.30;;;;;;;;;;1852172;77;612838;-76
2022/10/16 21:56:19;;;;;;;8.10;5.50;;;;;;;;;;1780249;79;613558;-76
2022/10/16 21:58:48;;;;;;;9.90;6.00;;;;;;;;;;1852271;77;613501;-75
2022/10/16 22:01:18;;;;;;;8.40;6.00;;;;;;;;;;1826702;77;612760;-75
2022/10/16 22:03:46;;;;;;;8.37;6.20;;;;;;;;;;1852226;77;613560;-75
2022/10/16 22:06:16;;;;;;;8.40;5.90;;;;;;;;;;1754539;78;613590;-75
2022/10/16 22:08:46;;;;;;;9.50;6.13;;;;;;;;;;1809957;77;613918;-75
2022/10/16 22:11:16;;;;;;;7.43;5.80;;;;;;;;;;1829150;77;612829;-75
2022/10/16 22:13:45;;;;;;;9.97;6.43;;;;;;;;;;1832271;76;613964;-75
2022/10/16 22:16:14;;;;;;;11.97;6.33;;;;;;;;;;1824475;77;613660;-76
2022/10/16 22:18:43;;;;;;;9.67;6.23;;;;;;;;;;1832345;77;615870;-75
2022/10/16 22:21:11;;;;;;;13.60;6.53;;;;;;;;;;1842566;77;613875;-75
2022/10/16 22:23:42;;;;;;;8.50;5.57;;;;;;;;;;1832904;77;615645;-75
2022/10/16 22:26:12;;;;;;;8.27;6.50;;;;;;;;;;1842542;77;613571;-74
2022/10/16 22:28:41;;;;;;;11.80;6.67;;;;;;;;;;1850200;77;613530;-74
2022/10/16 22:31:12;;;;;;;6.80;5.73;;;;;;;;;;1825100;77;615828;-77
2022/10/16 22:33:42;;;;;;;9.37;6.43;;;;;;;;;;1850302;75;613595;-75
2022/10/16 22:36:12;;;;;;;9.60;6.13;;;;;;;;;;1842300;77;613911;-75
2022/10/16 22:38:41;;;;;;;6.47;5.83;;;;;;;;;;1852531;77;613557;-75
2022/10/16 22:41:11;;;;;;;7.90;6.00;;;;;;;;;;1844402;77;613456;-75
2022/10/16 22:43:41;;;;;;;9.47;6.13;;;;;;;;;;1835229;77;613668;-75
2022/10/16 22:46:12;;;;;;;7.53;5.63;;;;;;;;;;1844398;77;613516;-75
2022/10/16 22:48:42;;;;;;;9.37;6.23;;;;;;;;;;1852441;77;613609;-75
2022/10/16 22:51:12;;;;;;;10.10;5.90;;;;;;;;;;1826200;77;613732;-75
2022/10/16 22:53:41;;;;;;;10.37;5.90;;;;;;;;;;1850350;77;615697;-75
2022/10/16 22:56:11;;;;;;;7.80;6.77;;;;;;;;;;1842510;77;615794;-75